createdAt,value
2022-08-28T00:00:34.116Z,0
2022-08-28T00:20:34.089Z,0
2022-08-28T00:40:34.103Z,0
2022-08-28T01:00:33.965Z,0
2022-08-28T01:20:34.024Z,0
2022-08-28T01:40:33.959Z,0
2022-08-28T02:00:33.849Z,0
2022-08-28T02:20:33.757Z,0
2022-08-28T02:40:33.848Z,0
2022-08-28T03:00:33.691Z,0
2022-08-28T03:20:33.658Z,0
2022-08-28T03:40:33.621Z,0
2022-08-28T04:00:33.531Z,5
2022-08-28T04:20:33.568Z,41
2022-08-28T04:40:33.551Z,111
2022-08-28T05:00:33.425Z,330
2022-08-28T05:20:33.414Z,525
2022-08-28T05:40:33.396Z,1186
2022-08-28T06:00:33.283Z,1600
2022-08-28T06:20:33.224Z,13756
2022-08-28T06:40:33.246Z,6525
2022-08-28T07:00:33.244Z,14080
2022-08-28T07:20:33.088Z,12902
2022-08-28T07:40:33.101Z,18715
2022-08-28T08:00:32.996Z,8411
2022-08-28T08:20:32.929Z,8669
2022-08-28T08:40:32.991Z,30276
2022-08-28T09:00:32.834Z,7473
2022-08-28T09:20:33.543Z,25288
2022-08-28T09:40:32.782Z,26351
2022-08-28T10:00:32.701Z,10700
2022-08-28T10:20:32.715Z,9825
2022-08-28T10:40:32.614Z,8326
2022-08-28T11:00:32.533Z,6477
2022-08-28T11:20:32.465Z,4615
2022-08-28T11:40:32.498Z,5070
2022-08-28T12:00:32.402Z,5859
2022-08-28T12:20:32.341Z,5656
2022-08-28T12:40:32.410Z,5310
2022-08-28T13:00:32.259Z,4646
2022-08-28T13:20:32.227Z,4846
2022-08-28T13:41:05.966Z,7085
2022-08-28T14:00:32.107Z,5078
2022-08-28T14:20:32.027Z,4888
2022-08-28T14:40:32.066Z,4595
2022-08-28T15:00:32.034Z,4449
2022-08-28T15:20:31.900Z,3840
2022-08-28T15:40:31.906Z,3246
2022-08-28T16:00:31.801Z,2940
2022-08-28T16:20:31.757Z,2204
2022-08-28T16:40:31.967Z,1505
2022-08-28T17:00:31.666Z,1159
2022-08-28T17:20:31.584Z,811
2022-08-28T17:40:31.702Z,440
2022-08-28T18:00:31.491Z,133
2022-08-28T18:20:31.441Z,10
2022-08-28T18:40:31.560Z,0
2022-08-28T19:00:31.356Z,0
2022-08-28T19:20:31.302Z,0
2022-08-28T19:40:31.279Z,0
2022-08-28T20:00:31.303Z,0
2022-08-28T20:20:31.165Z,0
2022-08-28T20:40:31.186Z,0
2022-08-28T21:00:31.054Z,0
2022-08-28T21:20:31.088Z,0
2022-08-28T21:40:31.075Z,0
2022-08-28T22:00:30.997Z,0
2022-08-28T22:20:30.881Z,0
2022-08-28T22:40:31.015Z,0
2022-08-28T23:00:30.786Z,0
2022-08-28T23:20:30.764Z,0
2022-08-28T23:40:30.780Z,0
